sensor_id;sensor_type;location;lat;lon;timestamp;temperature;humidity
55083;DHT22;40978;52.850;6.506;2023-02-15T00:01:07;0.90;99.90
55083;DHT22;40978;52.850;6.506;2023-02-15T00:03:33;0.90;99.90
55083;DHT22;40978;52.850;6.506;2023-02-15T00:05:59;0.80;99.90
55083;DHT22;40978;52.850;6.506;2023-02-15T00:08:25;0.80;99.90
55083;DHT22;40978;52.850;6.506;2023-02-15T00:10:50;0.80;99.90
55083;DHT22;40978;52.850;6.506;2023-02-15T00:13:16;0.80;99.90
55083;DHT22;40978;52.850;6.506;2023-02-15T00:15:42;0.80;99.90
55083;DHT22;40978;52.850;6.506;2023-02-15T00:18:07;0.70;99.90
55083;DHT22;40978;52.850;6.506;2023-02-15T00:20:33;0.70;99.90
55083;DHT22;40978;52.850;6.506;2023-02-15T00:22:59;0.60;99.90
55083;DHT22;40978;52.850;6.506;2023-02-15T00:25:25;0.60;99.90
55083;DHT22;40978;52.850;6.506;2023-02-15T00:27:50;0.60;99.90
55083;DHT22;40978;52.850;6.506;2023-02-15T00:30:16;0.50;99.90
55083;DHT22;40978;52.850;6.506;2023-02-15T00:32:42;0.50;99.90
55083;DHT22;40978;52.850;6.506;2023-02-15T00:35:08;0.50;99.90
55083;DHT22;40978;52.850;6.506;2023-02-15T00:37:34;0.40;99.90
55083;DHT22;40978;52.850;6.506;2023-02-15T00:40:00;0.40;99.90
55083;DHT22;40978;52.850;6.506;2023-02-15T00:42:26;0.40;99.90
55083;DHT22;40978;52.850;6.506;2023-02-15T00:44:52;0.30;99.90
55083;DHT22;40978;52.850;6.506;2023-02-15T00:47:18;0.30;99.90
55083;DHT22;40978;52.850;6.506;2023-02-15T00:49:43;0.30;99.90
55083;DHT22;40978;52.850;6.506;2023-02-15T00:52:09;0.30;99.90
55083;DHT22;40978;52.850;6.506;2023-02-15T00:54:35;0.30;99.90
55083;DHT22;40978;52.850;6.506;2023-02-15T00:57:01;0.20;99.90
55083;DHT22;40978;52.850;6.506;2023-02-15T00:59:26;0.30;99.90
55083;DHT22;40978;52.850;6.506;2023-02-15T01:01:52;0.20;99.90
55083;DHT22;40978;52.850;6.506;2023-02-15T01:04:18;0.30;99.90
55083;DHT22;40978;52.850;6.506;2023-02-15T01:06:43;0.30;99.90
55083;DHT22;40978;52.850;6.506;2023-02-15T01:09:09;0.30;99.90
55083;DHT22;40978;52.850;6.506;2023-02-15T01:11:35;0.20;99.90
55083;DHT22;40978;52.850;6.506;2023-02-15T01:14:00;0.30;99.90
55083;DHT22;40978;52.850;6.506;2023-02-15T01:16:28;0.30;99.90
55083;DHT22;40978;52.850;6.506;2023-02-15T01:18:54;0.30;99.90
55083;DHT22;40978;52.850;6.506;2023-02-15T01:21:22;0.30;99.90
55083;DHT22;40978;52.850;6.506;2023-02-15T01:23:48;0.30;99.90
55083;DHT22;40978;52.850;6.506;2023-02-15T01:26:15;0.30;99.90
55083;DHT22;40978;52.850;6.506;2023-02-15T01:28:41;0.30;99.90
55083;DHT22;40978;52.850;6.506;2023-02-15T01:31:11;0.20;99.90
55083;DHT22;40978;52.850;6.506;2023-02-15T01:33:38;0.20;99.90
55083;DHT22;40978;52.850;6.506;2023-02-15T01:36:04;0.20;99.90
55083;DHT22;40978;52.850;6.506;2023-02-15T01:38:30;0.20;99.90
55083;DHT22;40978;52.850;6.506;2023-02-15T01:40:56;0.20;99.90
55083;DHT22;40978;52.850;6.506;2023-02-15T01:46:37;0.10;99.90
55083;DHT22;40978;52.850;6.506;2023-02-15T01:49:15;0.10;99.90
55083;DHT22;40978;52.850;6.506;2023-02-15T01:51:43;0.10;99.90
55083;DHT22;40978;52.850;6.506;2023-02-15T01:56:43;0.00;99.90
55083;DHT22;40978;52.850;6.506;2023-02-15T01:59:13;0.00;99.90
55083;DHT22;40978;52.850;6.506;2023-02-15T02:01:41;0.00;99.90
55083;DHT22;40978;52.850;6.506;2023-02-15T02:06:48;0.00;99.90
55083;DHT22;40978;52.850;6.506;2023-02-15T02:09:14;0.00;99.90
55083;DHT22;40978;52.850;6.506;2023-02-15T02:11:40;0.00;99.90
55083;DHT22;40978;52.850;6.506;2023-02-15T02:14:07;0.00;99.90
55083;DHT22;40978;52.850;6.506;2023-02-15T02:16:37;-0.10;99.90
55083;DHT22;40978;52.850;6.506;2023-02-15T02:47:03;-0.30;99.90
55083;DHT22;40978;52.850;6.506;2023-02-15T02:49:31;-0.30;99.90
55083;DHT22;40978;52.850;6.506;2023-02-15T02:51:59;-0.30;99.90
55083;DHT22;40978;52.850;6.506;2023-02-15T02:54:25;-0.30;99.90
55083;DHT22;40978;52.850;6.506;2023-02-15T02:56:53;-0.30;99.90
55083;DHT22;40978;52.850;6.506;2023-02-15T02:59:27;-0.40;99.90
55083;DHT22;40978;52.850;6.506;2023-02-15T03:04:41;-0.40;99.90
55083;DHT22;40978;52.850;6.506;2023-02-15T03:07:12;-0.30;99.90
55083;DHT22;40978;52.850;6.506;2023-02-15T03:09:44;-0.40;99.90
55083;DHT22;40978;52.850;6.506;2023-02-15T03:12:20;-0.40;99.90
55083;DHT22;40978;52.850;6.506;2023-02-15T03:15:08;-0.40;99.90
55083;DHT22;40978;52.850;6.506;2023-02-15T03:17:41;-0.40;99.90
55083;DHT22;40978;52.850;6.506;2023-02-15T03:20:16;-0.50;99.90
55083;DHT22;40978;52.850;6.506;2023-02-15T03:22:52;-0.50;99.90
55083;DHT22;40978;52.850;6.506;2023-02-15T03:25:25;-0.50;99.90
55083;DHT22;40978;52.850;6.506;2023-02-15T03:27:59;-0.50;99.90
55083;DHT22;40978;52.850;6.506;2023-02-15T03:30:28;-0.50;99.90
55083;DHT22;40978;52.850;6.506;2023-02-15T03:32:56;-0.50;99.90
55083;DHT22;40978;52.850;6.506;2023-02-15T03:35:25;-0.50;99.90
55083;DHT22;40978;52.850;6.506;2023-02-15T03:38:00;-0.60;99.90
55083;DHT22;40978;52.850;6.506;2023-02-15T03:40:38;-0.60;99.90
55083;DHT22;40978;52.850;6.506;2023-02-15T03:43:56;-0.60;99.90
55083;DHT22;40978;52.850;6.506;2023-02-15T03:46:35;-0.60;99.90
55083;DHT22;40978;52.850;6.506;2023-02-15T03:51:34;-0.60;99.90
55083;DHT22;40978;52.850;6.506;2023-02-15T03:54:22;-0.70;99.90
55083;DHT22;40978;52.850;6.506;2023-02-15T03:57:15;-0.70;99.90
55083;DHT22;40978;52.850;6.506;2023-02-15T04:00:02;-0.70;99.90
55083;DHT22;40978;52.850;6.506;2023-02-15T04:05:18;-0.70;99.90
55083;DHT22;40978;52.850;6.506;2023-02-15T04:07:44;-0.70;99.90
55083;DHT22;40978;52.850;6.506;2023-02-15T04:10:10;-0.70;99.90
55083;DHT22;40978;52.850;6.506;2023-02-15T04:12:54;-0.70;99.90
55083;DHT22;40978;52.850;6.506;2023-02-15T04:15:20;-0.80;99.90
55083;DHT22;40978;52.850;6.506;2023-02-15T04:18:04;-0.70;99.90
55083;DHT22;40978;52.850;6.506;2023-02-15T04:20:30;-0.80;99.90
55083;DHT22;40978;52.850;6.506;2023-02-15T04:23:14;-0.70;99.90
55083;DHT22;40978;52.850;6.506;2023-02-15T04:25:58;-0.70;99.90
55083;DHT22;40978;52.850;6.506;2023-02-15T04:28:24;-0.70;99.90
55083;DHT22;40978;52.850;6.506;2023-02-15T04:30:50;-0.70;99.90
55083;DHT22;40978;52.850;6.506;2023-02-15T04:33:20;-0.70;99.90
55083;DHT22;40978;52.850;6.506;2023-02-15T04:36:02;-0.70;99.90
55083;DHT22;40978;52.850;6.506;2023-02-15T04:38:42;-0.70;99.90
55083;DHT22;40978;52.850;6.506;2023-02-15T04:41:15;-0.70;99.90
55083;DHT22;40978;52.850;6.506;2023-02-15T04:43:40;-0.70;99.90
55083;DHT22;40978;52.850;6.506;2023-02-15T04:46:06;-0.70;99.90
55083;DHT22;40978;52.850;6.506;2023-02-15T04:48:32;-0.70;99.90
55083;DHT22;40978;52.850;6.506;2023-02-15T04:50:58;-0.70;99.90
55083;DHT22;40978;52.850;6.506;2023-02-15T04:53:23;-0.70;99.90
55083;DHT22;40978;52.850;6.506;2023-02-15T04:55:49;-0.60;99.90
55083;DHT22;40978;52.850;6.506;2023-02-15T04:58:15;-0.60;99.90
55083;DHT22;40978;52.850;6.506;2023-02-15T05:00:41;-0.60;99.90
55083;DHT22;40978;52.850;6.506;2023-02-15T05:03:06;-0.60;99.90
55083;DHT22;40978;52.850;6.506;2023-02-15T05:05:32;-0.70;99.90
55083;DHT22;40978;52.850;6.506;2023-02-15T05:07:58;-0.70;99.90
55083;DHT22;40978;52.850;6.506;2023-02-15T05:10:23;-0.60;99.90
55083;DHT22;40978;52.850;6.506;2023-02-15T05:12:49;-0.70;99.90
55083;DHT22;40978;52.850;6.506;2023-02-15T05:15:15;-0.70;99.90
55083;DHT22;40978;52.850;6.506;2023-02-15T05:17:40;-0.70;99.90
55083;DHT22;40978;52.850;6.506;2023-02-15T05:20:06;-0.70;99.90
55083;DHT22;40978;52.850;6.506;2023-02-15T05:22:32;-0.70;99.90
55083;DHT22;40978;52.850;6.506;2023-02-15T05:24:58;-0.70;99.90
55083;DHT22;40978;52.850;6.506;2023-02-15T05:27:42;-0.70;99.90
55083;DHT22;40978;52.850;6.506;2023-02-15T05:30:27;-0.70;99.90
55083;DHT22;40978;52.850;6.506;2023-02-15T05:32:52;-0.70;99.90
55083;DHT22;40978;52.850;6.506;2023-02-15T05:35:18;-0.70;99.90
55083;DHT22;40978;52.850;6.506;2023-02-15T05:37:44;-0.70;99.90
55083;DHT22;40978;52.850;6.506;2023-02-15T05:40:10;-0.70;99.90
55083;DHT22;40978;52.850;6.506;2023-02-15T05:42:36;-0.70;99.90
55083;DHT22;40978;52.850;6.506;2023-02-15T05:45:01;-0.70;99.90
55083;DHT22;40978;52.850;6.506;2023-02-15T05:47:29;-0.70;99.90
55083;DHT22;40978;52.850;6.506;2023-02-15T05:49:55;-0.70;99.90
55083;DHT22;40978;52.850;6.506;2023-02-15T05:52:20;-0.70;99.90
55083;DHT22;40978;52.850;6.506;2023-02-15T05:54:47;-0.70;99.90
55083;DHT22;40978;52.850;6.506;2023-02-15T05:57:12;-0.70;99.90
55083;DHT22;40978;52.850;6.506;2023-02-15T05:59:38;-0.60;99.90
55083;DHT22;40978;52.850;6.506;2023-02-15T06:02:04;-0.60;99.90
55083;DHT22;40978;52.850;6.506;2023-02-15T06:04:31;-0.70;99.90
55083;DHT22;40978;52.850;6.506;2023-02-15T06:06:57;-0.60;99.90
55083;DHT22;40978;52.850;6.506;2023-02-15T06:09:23;-0.60;99.90
55083;DHT22;40978;52.850;6.506;2023-02-15T06:11:49;-0.60;99.90
55083;DHT22;40978;52.850;6.506;2023-02-15T06:14:14;-0.60;99.90
55083;DHT22;40978;52.850;6.506;2023-02-15T06:16:40;-0.60;99.90
55083;DHT22;40978;52.850;6.506;2023-02-15T06:19:06;-0.60;99.90
55083;DHT22;40978;52.850;6.506;2023-02-15T06:21:32;-0.60;99.90
55083;DHT22;40978;52.850;6.506;2023-02-15T06:23:57;-0.60;99.90
55083;DHT22;40978;52.850;6.506;2023-02-15T06:26:23;-0.60;99.90
55083;DHT22;40978;52.850;6.506;2023-02-15T06:28:49;-0.50;99.90
55083;DHT22;40978;52.850;6.506;2023-02-15T06:31:15;-0.50;99.90
55083;DHT22;40978;52.850;6.506;2023-02-15T06:33:40;-0.50;99.90
55083;DHT22;40978;52.850;6.506;2023-02-15T06:36:06;-0.50;99.90
55083;DHT22;40978;52.850;6.506;2023-02-15T06:38:32;-0.50;99.90
55083;DHT22;40978;52.850;6.506;2023-02-15T06:40:58;-0.40;99.90
55083;DHT22;40978;52.850;6.506;2023-02-15T06:43:24;-0.40;99.90
55083;DHT22;40978;52.850;6.506;2023-02-15T06:45:50;-0.40;99.90
55083;DHT22;40978;52.850;6.506;2023-02-15T06:48:15;-0.30;99.90
55083;DHT22;40978;52.850;6.506;2023-02-15T06:50:41;-0.30;99.90
55083;DHT22;40978;52.850;6.506;2023-02-15T06:53:07;-0.30;99.90
55083;DHT22;40978;52.850;6.506;2023-02-15T06:55:33;-0.20;99.90
55083;DHT22;40978;52.850;6.506;2023-02-15T06:57:58;-0.20;99.90
55083;DHT22;40978;52.850;6.506;2023-02-15T07:00:24;-0.20;99.90
55083;DHT22;40978;52.850;6.506;2023-02-15T07:02:56;-0.10;99.90
55083;DHT22;40978;52.850;6.506;2023-02-15T07:05:24;-0.10;99.90
55083;DHT22;40978;52.850;6.506;2023-02-15T07:07:50;0.00;99.90
55083;DHT22;40978;52.850;6.506;2023-02-15T07:10:16;0.00;99.90
55083;DHT22;40978;52.850;6.506;2023-02-15T07:12:42;0.10;99.90
55083;DHT22;40978;52.850;6.506;2023-02-15T07:15:15;0.10;99.90
55083;DHT22;40978;52.850;6.506;2023-02-15T07:17:42;0.20;99.90
55083;DHT22;40978;52.850;6.506;2023-02-15T07:20:20;0.20;99.90
55083;DHT22;40978;52.850;6.506;2023-02-15T07:22:47;0.30;99.90
55083;DHT22;40978;52.850;6.506;2023-02-15T07:25:13;0.30;99.90
55083;DHT22;40978;52.850;6.506;2023-02-15T07:27:39;0.30;99.90
55083;DHT22;40978;52.850;6.506;2023-02-15T07:30:08;0.40;99.90
55083;DHT22;40978;52.850;6.506;2023-02-15T07:32:34;0.40;99.90
55083;DHT22;40978;52.850;6.506;2023-02-15T07:35:00;0.50;99.90
55083;DHT22;40978;52.850;6.506;2023-02-15T07:37:26;0.70;99.90
55083;DHT22;40978;52.850;6.506;2023-02-15T07:39:52;0.80;99.90
55083;DHT22;40978;52.850;6.506;2023-02-15T07:42:18;1.00;99.90
55083;DHT22;40978;52.850;6.506;2023-02-15T07:44:45;1.30;99.90
55083;DHT22;40978;52.850;6.506;2023-02-15T07:47:11;1.80;99.90
55083;DHT22;40978;52.850;6.506;2023-02-15T07:49:37;2.30;99.90
55083;DHT22;40978;52.850;6.506;2023-02-15T07:52:04;3.00;99.90
55083;DHT22;40978;52.850;6.506;2023-02-15T07:54:29;3.60;99.90
55083;DHT22;40978;52.850;6.506;2023-02-15T07:56:55;4.10;99.90
55083;DHT22;40978;52.850;6.506;2023-02-15T07:59:21;4.70;99.90
55083;DHT22;40978;52.850;6.506;2023-02-15T08:01:47;5.10;99.90
55083;DHT22;40978;52.850;6.506;2023-02-15T08:04:12;5.40;99.90
55083;DHT22;40978;52.850;6.506;2023-02-15T08:06:38;5.80;99.90
55083;DHT22;40978;52.850;6.506;2023-02-15T08:09:06;6.20;99.90
55083;DHT22;40978;52.850;6.506;2023-02-15T08:11:34;6.60;99.90
55083;DHT22;40978;52.850;6.506;2023-02-15T08:16:35;7.40;99.90
55083;DHT22;40978;52.850;6.506;2023-02-15T08:19:10;7.70;99.90
55083;DHT22;40978;52.850;6.506;2023-02-15T08:21:39;7.90;99.90
55083;DHT22;40978;52.850;6.506;2023-02-15T08:24:07;8.10;99.90
55083;DHT22;40978;52.850;6.506;2023-02-15T08:26:34;8.40;99.90
55083;DHT22;40978;52.850;6.506;2023-02-15T08:29:00;8.70;99.90
55083;DHT22;40978;52.850;6.506;2023-02-15T08:31:26;8.90;99.90
55083;DHT22;40978;52.850;6.506;2023-02-15T08:33:54;9.20;99.90
55083;DHT22;40978;52.850;6.506;2023-02-15T08:36:22;9.60;99.90
55083;DHT22;40978;52.850;6.506;2023-02-15T08:38:49;9.80;99.90
55083;DHT22;40978;52.850;6.506;2023-02-15T08:41:21;10.10;99.90
55083;DHT22;40978;52.850;6.506;2023-02-15T08:43:49;9.90;99.90
55083;DHT22;40978;52.850;6.506;2023-02-15T08:46:16;10.00;99.90
55083;DHT22;40978;52.850;6.506;2023-02-15T08:48:42;10.10;99.90
55083;DHT22;40978;52.850;6.506;2023-02-15T08:51:11;10.50;99.90
55083;DHT22;40978;52.850;6.506;2023-02-15T08:53:43;10.50;99.90
55083;DHT22;40978;52.850;6.506;2023-02-15T08:56:10;10.60;99.90
55083;DHT22;40978;52.850;6.506;2023-02-15T08:58:36;10.70;99.90
55083;DHT22;40978;52.850;6.506;2023-02-15T09:01:11;10.80;99.90
55083;DHT22;40978;52.850;6.506;2023-02-15T09:03:38;11.00;99.90
55083;DHT22;40978;52.850;6.506;2023-02-15T09:06:04;11.10;99.90
55083;DHT22;40978;52.850;6.506;2023-02-15T09:08:30;11.40;99.90
55083;DHT22;40978;52.850;6.506;2023-02-15T09:11:10;11.50;99.90
55083;DHT22;40978;52.850;6.506;2023-02-15T09:13:38;11.80;99.90
55083;DHT22;40978;52.850;6.506;2023-02-15T09:16:06;12.10;99.90
55083;DHT22;40978;52.850;6.506;2023-02-15T09:18:36;12.20;99.90
55083;DHT22;40978;52.850;6.506;2023-02-15T09:21:22;12.40;99.90
55083;DHT22;40978;52.850;6.506;2023-02-15T09:23:51;12.70;99.90
55083;DHT22;40978;52.850;6.506;2023-02-15T09:26:19;13.10;99.90
55083;DHT22;40978;52.850;6.506;2023-02-15T09:28:46;13.60;99.90
55083;DHT22;40978;52.850;6.506;2023-02-15T09:31:17;13.90;99.90
55083;DHT22;40978;52.850;6.506;2023-02-15T09:33:44;13.80;99.90
55083;DHT22;40978;52.850;6.506;2023-02-15T09:36:28;13.70;99.90
55083;DHT22;40978;52.850;6.506;2023-02-15T09:39:15;14.00;99.90
55083;DHT22;40978;52.850;6.506;2023-02-15T09:42:04;14.30;99.90
55083;DHT22;40978;52.850;6.506;2023-02-15T09:53:27;15.00;99.90
55083;DHT22;40978;52.850;6.506;2023-02-15T10:12:56;13.30;99.90
55083;DHT22;40978;52.850;6.506;2023-02-15T10:15:53;13.50;99.90
55083;DHT22;40978;52.850;6.506;2023-02-15T10:21:00;14.30;99.90
55083;DHT22;40978;52.850;6.506;2023-02-15T10:26:46;15.20;99.90
55083;DHT22;40978;52.850;6.506;2023-02-15T10:29:19;15.70;99.90
55083;DHT22;40978;52.850;6.506;2023-02-15T10:31:49;15.60;99.90
55083;DHT22;40978;52.850;6.506;2023-02-15T10:34:23;15.40;99.90
55083;DHT22;40978;52.850;6.506;2023-02-15T10:37:00;15.40;99.90
55083;DHT22;40978;52.850;6.506;2023-02-15T10:42:20;15.00;99.90
55083;DHT22;40978;52.850;6.506;2023-02-15T10:45:10;15.00;99.90
55083;DHT22;40978;52.850;6.506;2023-02-15T10:58:08;15.40;99.90
55083;DHT22;40978;52.850;6.506;2023-02-15T11:08:30;15.00;99.90
55083;DHT22;40978;52.850;6.506;2023-02-15T11:11:01;15.20;99.90
55083;DHT22;40978;52.850;6.506;2023-02-15T11:13:32;15.60;99.90
55083;DHT22;40978;52.850;6.506;2023-02-15T11:16:24;16.10;99.90
55083;DHT22;40978;52.850;6.506;2023-02-15T11:19:06;16.30;99.90
55083;DHT22;40978;52.850;6.506;2023-02-15T11:21:45;16.30;99.90
55083;DHT22;40978;52.850;6.506;2023-02-15T11:24:17;16.30;99.90
55083;DHT22;40978;52.850;6.506;2023-02-15T11:27:16;16.40;99.90
55083;DHT22;40978;52.850;6.506;2023-02-15T11:29:33;16.40;99.90
55083;DHT22;40978;52.850;6.506;2023-02-15T11:37:48;16.60;99.90
55083;DHT22;40978;52.850;6.506;2023-02-15T11:40:33;16.80;99.90
55083;DHT22;40978;52.850;6.506;2023-02-15T11:43:26;16.80;99.90
55083;DHT22;40978;52.850;6.506;2023-02-15T11:45:53;16.70;99.90
55083;DHT22;40978;52.850;6.506;2023-02-15T11:48:20;16.50;99.90
55083;DHT22;40978;52.850;6.506;2023-02-15T11:50:46;16.40;99.90
55083;DHT22;40978;52.850;6.506;2023-02-15T11:53:22;16.60;99.90
55083;DHT22;40978;52.850;6.506;2023-02-15T11:55:54;16.60;99.90
55083;DHT22;40978;52.850;6.506;2023-02-15T12:04:21;14.30;99.90
55083;DHT22;40978;52.850;6.506;2023-02-15T12:07:00;13.60;99.90
55083;DHT22;40978;52.850;6.506;2023-02-15T12:09:37;13.10;99.90
55083;DHT22;40978;52.850;6.506;2023-02-15T12:12:24;12.70;99.90
55083;DHT22;40978;52.850;6.506;2023-02-15T12:14:55;12.50;99.90
55083;DHT22;40978;52.850;6.506;2023-02-15T12:17:26;12.20;99.90
55083;DHT22;40978;52.850;6.506;2023-02-15T12:19:56;12.00;99.90
55083;DHT22;40978;52.850;6.506;2023-02-15T12:22:28;11.90;99.90
55083;DHT22;40978;52.850;6.506;2023-02-15T12:24:56;11.80;99.90
55083;DHT22;40978;52.850;6.506;2023-02-15T12:27:31;11.70;99.90
55083;DHT22;40978;52.850;6.506;2023-02-15T12:32:50;11.40;99.90
55083;DHT22;40978;52.850;6.506;2023-02-15T12:37:56;11.20;99.90
55083;DHT22;40978;52.850;6.506;2023-02-15T12:40:30;11.20;99.90
55083;DHT22;40978;52.850;6.506;2023-02-15T12:42:57;11.20;99.90
55083;DHT22;40978;52.850;6.506;2023-02-15T12:45:27;11.20;99.90
55083;DHT22;40978;52.850;6.506;2023-02-15T12:50:38;11.20;99.90
55083;DHT22;40978;52.850;6.506;2023-02-15T12:53:32;11.20;99.90
55083;DHT22;40978;52.850;6.506;2023-02-15T12:56:01;11.20;99.90
55083;DHT22;40978;52.850;6.506;2023-02-15T12:58:29;11.20;99.90
55083;DHT22;40978;52.850;6.506;2023-02-15T13:01:12;11.20;99.90
55083;DHT22;40978;52.850;6.506;2023-02-15T13:03:50;11.20;99.90
55083;DHT22;40978;52.850;6.506;2023-02-15T13:06:20;11.20;99.90
55083;DHT22;40978;52.850;6.506;2023-02-15T13:08:52;11.20;99.90
55083;DHT22;40978;52.850;6.506;2023-02-15T13:11:29;11.20;99.90
55083;DHT22;40978;52.850;6.506;2023-02-15T13:16:48;11.20;99.90
55083;DHT22;40978;52.850;6.506;2023-02-15T13:19:22;11.20;99.90
55083;DHT22;40978;52.850;6.506;2023-02-15T13:21:52;11.20;99.90
55083;DHT22;40978;52.850;6.506;2023-02-15T13:24:24;11.20;99.90
55083;DHT22;40978;52.850;6.506;2023-02-15T13:26:52;11.30;99.90
55083;DHT22;40978;52.850;6.506;2023-02-15T13:29:31;11.30;99.90
55083;DHT22;40978;52.850;6.506;2023-02-15T13:32:06;11.30;99.90
55083;DHT22;40978;52.850;6.506;2023-02-15T13:34:36;11.30;99.90
55083;DHT22;40978;52.850;6.506;2023-02-15T13:37:23;11.40;99.90
55083;DHT22;40978;52.850;6.506;2023-02-15T13:39:58;11.40;99.90
55083;DHT22;40978;52.850;6.506;2023-02-15T13:43:11;11.40;99.90
55083;DHT22;40978;52.850;6.506;2023-02-15T13:45:33;11.50;99.90
55083;DHT22;40978;52.850;6.506;2023-02-15T13:51:04;11.70;99.90
55083;DHT22;40978;52.850;6.506;2023-02-15T14:15:53;11.90;99.90
55083;DHT22;40978;52.850;6.506;2023-02-15T14:18:35;11.90;99.90
55083;DHT22;40978;52.850;6.506;2023-02-15T14:30:20;11.60;99.90
55083;DHT22;40978;52.850;6.506;2023-02-15T14:32:51;11.50;99.90
55083;DHT22;40978;52.850;6.506;2023-02-15T14:35:20;11.40;99.90
55083;DHT22;40978;52.850;6.506;2023-02-15T14:40:59;11.30;99.90
55083;DHT22;40978;52.850;6.506;2023-02-15T14:48:49;11.10;99.90
55083;DHT22;40978;52.850;6.506;2023-02-15T15:00:27;11.10;99.90
55083;DHT22;40978;52.850;6.506;2023-02-15T15:02:43;11.10;99.90
55083;DHT22;40978;52.850;6.506;2023-02-15T15:05:34;11.10;99.90
55083;DHT22;40978;52.850;6.506;2023-02-15T15:08:03;11.10;99.90
55083;DHT22;40978;52.850;6.506;2023-02-15T15:10:36;11.00;99.90
55083;DHT22;40978;52.850;6.506;2023-02-15T15:16:24;10.90;99.90
55083;DHT22;40978;52.850;6.506;2023-02-15T15:18:50;10.90;99.90
55083;DHT22;40978;52.850;6.506;2023-02-15T15:27:38;10.80;99.90
55083;DHT22;40978;52.850;6.506;2023-02-15T15:51:05;10.20;99.90
55083;DHT22;40978;52.850;6.506;2023-02-15T15:53:37;10.20;99.90
55083;DHT22;40978;52.850;6.506;2023-02-15T15:56:10;10.10;99.90
55083;DHT22;40978;52.850;6.506;2023-02-15T15:58:44;10.00;99.90
55083;DHT22;40978;52.850;6.506;2023-02-15T16:01:11;10.00;99.90
55083;DHT22;40978;52.850;6.506;2023-02-15T16:03:48;9.90;99.90
55083;DHT22;40978;52.850;6.506;2023-02-15T16:06:26;9.80;99.90
55083;DHT22;40978;52.850;6.506;2023-02-15T16:08:52;9.80;99.90
55083;DHT22;40978;52.850;6.506;2023-02-15T16:11:22;9.70;99.90
55083;DHT22;40978;52.850;6.506;2023-02-15T16:13:49;9.60;99.90
55083;DHT22;40978;52.850;6.506;2023-02-15T16:16:24;9.60;99.90
55083;DHT22;40978;52.850;6.506;2023-02-15T16:18:57;9.50;99.90
55083;DHT22;40978;52.850;6.506;2023-02-15T16:21:30;9.50;99.90
55083;DHT22;40978;52.850;6.506;2023-02-15T16:27:36;9.30;99.90
55083;DHT22;40978;52.850;6.506;2023-02-15T16:29:55;9.20;99.90
55083;DHT22;40978;52.850;6.506;2023-02-15T16:32:25;9.10;99.90
55083;DHT22;40978;52.850;6.506;2023-02-15T16:34:54;9.10;99.90
55083;DHT22;40978;52.850;6.506;2023-02-15T16:37:23;9.10;99.90
55083;DHT22;40978;52.850;6.506;2023-02-15T16:39:51;9.00;99.90
55083;DHT22;40978;52.850;6.506;2023-02-15T16:42:18;8.90;99.90
55083;DHT22;40978;52.850;6.506;2023-02-15T16:44:54;8.90;99.90
55083;DHT22;40978;52.850;6.506;2023-02-15T16:47:39;8.80;99.90
55083;DHT22;40978;52.850;6.506;2023-02-15T16:53:04;8.70;99.90
55083;DHT22;40978;52.850;6.506;2023-02-15T16:55:41;8.60;99.90
55083;DHT22;40978;52.850;6.506;2023-02-15T16:58:23;8.60;99.90
55083;DHT22;40978;52.850;6.506;2023-02-15T17:01:06;8.50;99.90
55083;DHT22;40978;52.850;6.506;2023-02-15T17:04:09;8.50;99.90
55083;DHT22;40978;52.850;6.506;2023-02-15T17:09:52;8.40;99.90
55083;DHT22;40978;52.850;6.506;2023-02-15T17:12:46;8.20;99.90
55083;DHT22;40978;52.850;6.506;2023-02-15T17:15:35;8.20;99.90
55083;DHT22;40978;52.850;6.506;2023-02-15T17:18:17;8.10;99.90
55083;DHT22;40978;52.850;6.506;2023-02-15T17:20:44;8.00;99.90
55083;DHT22;40978;52.850;6.506;2023-02-15T17:23:25;7.90;99.90
55083;DHT22;40978;52.850;6.506;2023-02-15T17:25:52;7.90;99.90
55083;DHT22;40978;52.850;6.506;2023-02-15T17:28:26;7.80;99.90
55083;DHT22;40978;52.850;6.506;2023-02-15T17:31:06;7.80;99.90
55083;DHT22;40978;52.850;6.506;2023-02-15T17:36:21;7.70;99.90
55083;DHT22;40978;52.850;6.506;2023-02-15T17:41:30;7.60;99.90
55083;DHT22;40978;52.850;6.506;2023-02-15T17:44:12;7.50;99.90
55083;DHT22;40978;52.850;6.506;2023-02-15T17:46:54;7.50;99.90
55083;DHT22;40978;52.850;6.506;2023-02-15T17:49:33;7.40;99.90
55083;DHT22;40978;52.850;6.506;2023-02-15T17:52:19;7.40;99.90
55083;DHT22;40978;52.850;6.506;2023-02-15T17:54:54;7.30;99.90
55083;DHT22;40978;52.850;6.506;2023-02-15T17:57:46;7.20;99.90
55083;DHT22;40978;52.850;6.506;2023-02-15T18:00:25;7.20;99.90
55083;DHT22;40978;52.850;6.506;2023-02-15T18:03:22;7.10;99.90
55083;DHT22;40978;52.850;6.506;2023-02-15T18:06:17;7.00;99.90
55083;DHT22;40978;52.850;6.506;2023-02-15T18:09:16;7.00;99.90
55083;DHT22;40978;52.850;6.506;2023-02-15T18:12:30;6.90;99.90
55083;DHT22;40978;52.850;6.506;2023-02-15T18:15:07;6.90;99.90
55083;DHT22;40978;52.850;6.506;2023-02-15T18:17:39;6.90;99.90
55083;DHT22;40978;52.850;6.506;2023-02-15T18:23:11;6.80;99.90
55083;DHT22;40978;52.850;6.506;2023-02-15T18:25:38;6.80;99.90
55083;DHT22;40978;52.850;6.506;2023-02-15T18:28:04;6.80;99.90
55083;DHT22;40978;52.850;6.506;2023-02-15T18:30:31;6.70;99.90
55083;DHT22;40978;52.850;6.506;2023-02-15T18:32:57;6.60;99.90
55083;DHT22;40978;52.850;6.506;2023-02-15T18:35:27;6.60;99.90
55083;DHT22;40978;52.850;6.506;2023-02-15T18:37:54;6.60;99.90
55083;DHT22;40978;52.850;6.506;2023-02-15T18:40:23;6.50;99.90
55083;DHT22;40978;52.850;6.506;2023-02-15T18:42:49;6.50;99.90
55083;DHT22;40978;52.850;6.506;2023-02-15T18:45:21;6.40;99.90
55083;DHT22;40978;52.850;6.506;2023-02-15T18:47:48;6.40;99.90
55083;DHT22;40978;52.850;6.506;2023-02-15T18:50:17;6.30;99.90
55083;DHT22;40978;52.850;6.506;2023-02-15T18:52:45;6.20;99.90
55083;DHT22;40978;52.850;6.506;2023-02-15T18:55:19;6.20;99.90
55083;DHT22;40978;52.850;6.506;2023-02-15T18:57:45;6.10;99.90
55083;DHT22;40978;52.850;6.506;2023-02-15T19:00:17;6.10;99.90
55083;DHT22;40978;52.850;6.506;2023-02-15T19:02:43;6.10;99.90
55083;DHT22;40978;52.850;6.506;2023-02-15T19:05:09;6.10;99.90
55083;DHT22;40978;52.850;6.506;2023-02-15T19:07:35;6.10;99.90
55083;DHT22;40978;52.850;6.506;2023-02-15T19:10:04;6.00;99.90
55083;DHT22;40978;52.850;6.506;2023-02-15T19:12:30;6.00;99.90
55083;DHT22;40978;52.850;6.506;2023-02-15T19:14:57;5.90;99.90
55083;DHT22;40978;52.850;6.506;2023-02-15T19:17:23;5.90;99.90
55083;DHT22;40978;52.850;6.506;2023-02-15T19:19:50;5.90;99.90
55083;DHT22;40978;52.850;6.506;2023-02-15T19:22:29;5.90;99.90
55083;DHT22;40978;52.850;6.506;2023-02-15T19:24:58;5.90;99.90
55083;DHT22;40978;52.850;6.506;2023-02-15T19:27:31;5.80;99.90
55083;DHT22;40978;52.850;6.506;2023-02-15T19:30:10;5.80;99.90
55083;DHT22;40978;52.850;6.506;2023-02-15T19:32:37;5.80;99.90
55083;DHT22;40978;52.850;6.506;2023-02-15T19:35:03;5.80;99.90
55083;DHT22;40978;52.850;6.506;2023-02-15T19:37:37;5.80;99.90
55083;DHT22;40978;52.850;6.506;2023-02-15T19:40:06;5.80;99.90
55083;DHT22;40978;52.850;6.506;2023-02-15T19:42:32;5.80;99.90
55083;DHT22;40978;52.850;6.506;2023-02-15T19:44:59;5.80;99.90